Time;durP1;ratioP1;P1;durP2;ratioP2;P2;SDS_P1;SDS_P2;PMS_P1;PMS_P2;Temp;Humidity;BMP_temperature;BMP_pressure;BME280_temperature;BME280_humidity;BME280_pressure;Samples;Min_cycle;Max_cycle;Signal;HPM_P1;HPM_P2
2023/12/22 00:00:20;;;;;;;9.07;1.05;;;5.20;99.90;;;;;;4992247;28;20342;-80
2023/12/22 00:02:45;;;;;;;14.27;0.80;;;5.10;99.90;;;;;;5011368;28;20548;-80
2023/12/22 00:05:11;;;;;;;9.35;1.02;;;5.10;99.90;;;;;;5010119;28;20081;-80
2023/12/22 00:07:36;;;;;;;13.05;1.40;;;5.10;99.90;;;;;;5012041;28;20033;-80
2023/12/22 00:10:02;;;;;;;1.67;0.50;;;5.00;99.90;;;;;;5012439;28;20041;-81
2023/12/22 00:12:28;;;;;;;8.55;1.05;;;5.00;99.90;;;;;;5009952;28;20094;-81
2023/12/22 00:14:53;;;;;;;6.55;0.82;;;4.90;99.90;;;;;;5026496;28;20422;-80
2023/12/22 00:17:19;;;;;;;7.57;1.30;;;5.00;99.90;;;;;;5009400;28;20507;-82
2023/12/22 00:19:45;;;;;;;6.95;1.15;;;4.90;99.90;;;;;;4995074;28;20500;-80
2023/12/22 00:22:10;;;;;;;9.35;1.02;;;4.90;99.90;;;;;;4992234;28;20029;-80
2023/12/22 00:24:36;;;;;;;10.23;1.00;;;4.80;99.90;;;;;;4993905;28;20493;-80
2023/12/22 00:27:02;;;;;;;5.13;1.10;;;4.90;99.90;;;;;;5009316;28;20418;-80
2023/12/22 00:29:28;;;;;;;7.18;0.85;;;4.80;99.90;;;;;;5024288;28;20044;-80
2023/12/22 00:31:55;;;;;;;6.38;1.48;;;4.80;99.90;;;;;;5009817;28;20033;-79
2023/12/22 00:34:22;;;;;;;13.68;1.50;;;4.70;99.90;;;;;;5024712;28;20112;-80
2023/12/22 00:36:47;;;;;;;8.80;1.17;;;4.80;99.90;;;;;;5009222;28;20659;-80
2023/12/22 00:39:13;;;;;;;9.48;1.27;;;4.90;99.90;;;;;;5024432;28;20029;-80
2023/12/22 00:41:38;;;;;;;1.95;0.55;;;4.90;99.90;;;;;;4988853;28;20033;-80
2023/12/22 00:44:04;;;;;;;15.88;1.83;;;4.90;99.90;;;;;;4994046;28;20029;-79
2023/12/22 00:46:30;;;;;;;9.65;1.50;;;5.00;99.90;;;;;;5010821;28;20033;-82
2023/12/22 00:48:55;;;;;;;10.75;1.83;;;5.00;99.90;;;;;;5025166;28;20029;-80
2023/12/22 00:51:21;;;;;;;8.10;1.20;;;5.00;99.90;;;;;;5007715;28;20032;-81
2023/12/22 00:53:46;;;;;;;10.63;1.20;;;5.00;99.90;;;;;;4994954;28;20021;-86
2023/12/22 00:56:13;;;;;;;13.40;1.33;;;5.10;99.90;;;;;;5028192;28;20610;-87
2023/12/22 00:58:39;;;;;;;11.38;1.13;;;5.10;99.90;;;;;;5013566;28;20025;-87
2023/12/22 01:01:05;;;;;;;9.90;1.58;;;5.00;99.90;;;;;;5028888;28;20032;-86
2023/12/22 01:03:30;;;;;;;4.32;0.70;;;5.00;99.90;;;;;;5028383;28;20033;-80
2023/12/22 01:05:57;;;;;;;12.98;1.70;;;5.20;99.90;;;;;;5008832;28;20029;-80
2023/12/22 01:08:22;;;;;;;14.95;1.80;;;5.10;99.90;;;;;;5007091;28;20104;-80
2023/12/22 01:10:48;;;;;;;12.60;1.67;;;5.10;99.90;;;;;;5024247;28;20044;-80
2023/12/22 01:13:14;;;;;;;8.48;1.63;;;5.10;99.90;;;;;;5009427;28;20044;-81
2023/12/22 01:15:39;;;;;;;7.13;1.98;;;5.10;99.90;;;;;;4995463;28;20031;-80
2023/12/22 01:18:05;;;;;;;5.53;0.85;;;4.90;99.90;;;;;;5011232;28;20056;-80
2023/12/22 01:20:31;;;;;;;7.78;1.83;;;5.20;99.90;;;;;;5010563;28;20361;-80
2023/12/22 01:22:56;;;;;;;8.98;1.60;;;5.20;99.90;;;;;;5010651;28;20025;-80
2023/12/22 01:25:22;;;;;;;7.65;1.35;;;5.20;99.90;;;;;;5028255;28;20037;-80
2023/12/22 01:27:56;;;;;;;14.18;1.83;;;5.10;99.90;;;;;;5026693;28;20095;-83
2023/12/22 01:30:22;;;;;;;8.15;1.73;;;5.10;99.90;;;;;;4988222;28;20095;-82
2023/12/22 01:32:47;;;;;;;7.60;1.40;;;5.10;99.90;;;;;;4997720;28;20485;-82
2023/12/22 01:35:14;;;;;;;3.70;0.63;;;4.90;99.90;;;;;;5011130;28;20033;-81
2023/12/22 01:37:39;;;;;;;4.40;0.40;;;5.00;99.90;;;;;;4995271;28;20513;-81
2023/12/22 01:40:06;;;;;;;11.02;0.98;;;4.90;99.90;;;;;;4999569;28;20041;-81
2023/12/22 01:42:31;;;;;;;6.82;1.00;;;4.70;99.90;;;;;;4985372;28;25818;-82
2023/12/22 01:44:59;;;;;;;5.28;1.88;;;4.70;99.90;;;;;;4998213;28;20061;-81
2023/12/22 01:47:27;;;;;;;2.60;0.73;;;4.70;99.90;;;;;;4996974;28;20041;-81
2023/12/22 01:49:53;;;;;;;0.85;0.30;;;4.50;99.90;;;;;;4994246;28;20063;-81
2023/12/22 01:52:18;;;;;;;6.68;0.65;;;4.50;99.90;;;;;;4985088;28;20171;-81
2023/12/22 01:54:44;;;;;;;2.40;0.70;;;4.50;99.90;;;;;;5028735;28;20029;-81
2023/12/22 01:57:11;;;;;;;1.25;0.28;;;4.50;99.90;;;;;;5027412;28;20083;-80
2023/12/22 01:59:36;;;;;;;5.25;0.40;;;4.40;99.90;;;;;;5026565;28;20052;-81
2023/12/22 02:02:02;;;;;;;7.18;0.40;;;4.50;99.90;;;;;;5010247;28;20041;-82
2023/12/22 02:04:28;;;;;;;3.80;0.68;;;4.50;99.90;;;;;;4991846;28;20160;-80
2023/12/22 02:06:54;;;;;;;2.42;0.63;;;4.50;99.90;;;;;;4994589;28;20116;-81
2023/12/22 02:09:19;;;;;;;8.27;1.10;;;4.50;99.90;;;;;;5009998;28;20037;-82
2023/12/22 02:11:45;;;;;;;6.53;0.80;;;4.60;99.90;;;;;;4991421;28;20268;-80
2023/12/22 02:14:10;;;;;;;3.33;0.52;;;4.60;99.90;;;;;;5010987;28;20037;-81
2023/12/22 02:16:41;;;;;;;3.80;0.75;;;4.60;99.90;;;;;;5023104;28;20099;-81
2023/12/22 02:19:36;;;;;;;3.95;0.65;;;4.60;99.90;;;;;;5024045;28;20064;-80
2023/12/22 02:22:06;;;;;;;7.45;1.65;;;4.60;99.90;;;;;;5041796;28;20029;-81
2023/12/22 02:24:32;;;;;;;4.20;0.50;;;4.50;99.90;;;;;;5023710;28;20500;-81
2023/12/22 02:27:04;;;;;;;8.65;1.20;;;4.70;99.90;;;;;;5007961;28;20029;-81
2023/12/22 02:29:31;;;;;;;3.78;0.60;;;4.70;99.90;;;;;;5041509;28;20045;-86
2023/12/22 02:31:57;;;;;;;10.20;1.15;;;4.70;99.90;;;;;;5005397;28;20499;-85
2023/12/22 02:34:22;;;;;;;9.35;1.23;;;4.70;99.90;;;;;;4993800;28;20042;-86
2023/12/22 02:36:48;;;;;;;7.28;1.10;;;4.70;99.90;;;;;;4994542;28;20037;-85
2023/12/22 02:39:14;;;;;;;7.30;0.90;;;4.60;99.90;;;;;;5009280;28;20128;-85
2023/12/22 02:41:42;;;;;;;9.05;0.70;;;4.70;99.90;;;;;;4987756;28;20045;-84
2023/12/22 02:44:08;;;;;;;4.45;1.05;;;4.70;99.90;;;;;;5011446;28;20040;-85
2023/12/22 02:46:34;;;;;;;4.70;1.05;;;4.60;99.90;;;;;;5011486;28;20392;-85
2023/12/22 02:48:59;;;;;;;8.00;1.65;;;4.60;99.90;;;;;;5012678;28;20049;-85
2023/12/22 02:51:25;;;;;;;8.50;1.63;;;4.60;99.90;;;;;;5012853;28;20067;-85
2023/12/22 02:53:50;;;;;;;7.90;1.35;;;4.60;99.90;;;;;;5028543;28;20103;-85
2023/12/22 02:56:16;;;;;;;8.85;1.80;;;4.60;99.90;;;;;;5021447;28;20040;-85
2023/12/22 02:58:51;;;;;;;11.18;1.52;;;4.70;99.90;;;;;;5016734;28;20663;-85
2023/12/22 03:01:18;;;;;;;13.90;1.80;;;4.60;99.90;;;;;;5016212;28;20091;-86
2023/12/22 03:03:46;;;;;;;7.15;1.30;;;4.60;99.90;;;;;;4997456;28;20033;-85
2023/12/22 03:06:12;;;;;;;5.15;0.70;;;4.50;99.90;;;;;;5015962;28;20033;-86
2023/12/22 03:08:37;;;;;;;7.80;1.83;;;4.50;99.90;;;;;;5014082;28;20481;-86
2023/12/22 03:11:03;;;;;;;7.75;2.33;;;4.50;99.90;;;;;;5017414;28;20053;-85
2023/12/22 03:13:28;;;;;;;16.15;1.67;;;4.50;99.90;;;;;;5030726;28;20087;-86
2023/12/22 03:15:54;;;;;;;7.28;1.35;;;4.50;99.90;;;;;;4997547;28;20037;-86
2023/12/22 03:18:20;;;;;;;7.28;1.27;;;4.50;99.90;;;;;;5015968;28;20021;-87
2023/12/22 03:20:46;;;;;;;9.02;1.55;;;4.40;99.90;;;;;;4999276;28;20057;-86
2023/12/22 03:23:11;;;;;;;7.60;1.50;;;4.30;99.90;;;;;;5000970;28;20051;-85
2023/12/22 03:25:37;;;;;;;13.07;2.17;;;4.20;99.90;;;;;;5015450;28;20040;-85
2023/12/22 03:28:03;;;;;;;7.07;1.48;;;4.40;99.90;;;;;;5031361;28;20083;-86
2023/12/22 03:30:28;;;;;;;16.38;2.75;;;4.30;99.90;;;;;;5008984;28;20059;-85
2023/12/22 03:32:54;;;;;;;3.83;1.25;;;4.40;99.90;;;;;;4997998;28;20029;-84
2023/12/22 03:35:19;;;;;;;6.00;0.90;;;4.50;99.90;;;;;;5030567;28;20120;-86
2023/12/22 03:37:45;;;;;;;8.48;2.22;;;4.60;99.90;;;;;;5014841;28;20025;-86
2023/12/22 03:40:14;;;;;;;9.00;2.65;;;4.60;99.90;;;;;;5011862;28;20044;-86
2023/12/22 03:42:39;;;;;;;7.80;1.20;;;4.50;99.90;;;;;;5005764;28;20860;-86
2023/12/22 03:45:06;;;;;;;13.57;3.17;;;4.50;99.90;;;;;;5014423;28;20035;-84
2023/12/22 03:47:31;;;;;;;17.95;2.80;;;4.60;99.90;;;;;;4996432;28;20025;-84
2023/12/22 03:49:57;;;;;;;12.45;1.92;;;4.60;99.90;;;;;;5015311;28;20598;-85
2023/12/22 03:52:22;;;;;;;10.95;2.17;;;4.70;99.90;;;;;;5012931;28;20033;-85
2023/12/22 03:54:48;;;;;;;15.55;2.63;;;4.70;99.90;;;;;;5013067;28;20082;-85
2023/12/22 03:57:14;;;;;;;18.75;2.70;;;4.70;99.90;;;;;;5000794;28;20143;-84
2023/12/22 03:59:39;;;;;;;7.40;1.50;;;4.70;99.90;;;;;;5031812;28;20033;-86
2023/12/22 04:02:05;;;;;;;16.13;2.53;;;4.70;99.90;;;;;;5032392;28;20043;-86
2023/12/22 04:04:42;;;;;;;6.80;1.80;;;4.70;99.90;;;;;;5015609;28;20028;-86
2023/12/22 04:07:08;;;;;;;5.28;1.60;;;4.80;99.90;;;;;;5014635;28;20115;-86
2023/12/22 04:09:33;;;;;;;14.18;2.35;;;4.80;99.90;;;;;;5028273;28;20468;-85
2023/12/22 04:11:59;;;;;;;19.63;2.97;;;4.80;99.90;;;;;;5000546;28;20048;-85
2023/12/22 04:14:25;;;;;;;3.95;1.33;;;4.80;99.90;;;;;;4998246;28;20048;-84
2023/12/22 04:16:52;;;;;;;9.18;1.23;;;4.80;99.90;;;;;;5014943;28;20382;-84
2023/12/22 04:19:18;;;;;;;6.43;1.13;;;4.80;99.90;;;;;;5022003;28;20036;-87
2023/12/22 04:21:43;;;;;;;10.48;1.88;;;4.90;99.90;;;;;;4986809;28;20021;-84
2023/12/22 04:24:10;;;;;;;4.03;0.82;;;5.00;99.90;;;;;;4997795;28;20435;-81
2023/12/22 04:26:41;;;;;;;11.45;1.42;;;4.90;99.90;;;;;;5009646;28;20033;-81
2023/12/22 04:29:09;;;;;;;10.35;1.38;;;4.80;99.90;;;;;;4988445;28;20040;-81
2023/12/22 04:31:34;;;;;;;17.55;2.00;;;4.80;99.90;;;;;;5009793;28;20037;-81
2023/12/22 04:34:01;;;;;;;17.17;2.65;;;4.80;99.90;;;;;;4994263;28;20036;-81
2023/12/22 04:36:27;;;;;;;8.93;2.10;;;4.90;99.90;;;;;;5005526;28;20444;-81
2023/12/22 04:39:01;;;;;;;17.95;2.83;;;4.90;99.90;;;;;;4985936;28;20029;-82
2023/12/22 04:41:48;;;;;;;17.48;2.15;;;4.70;99.90;;;;;;4968911;28;20041;-82
2023/12/22 04:49:52;;;;;;;15.43;3.47;;;4.80;99.90;;;;;;5021351;28;20119;-82
2023/12/22 04:52:17;;;;;;;13.35;3.72;;;4.80;99.90;;;;;;4997458;28;20037;-81
2023/12/22 04:54:51;;;;;;;22.80;3.08;;;4.80;99.90;;;;;;4965594;28;20420;-82
2023/12/22 04:57:29;;;;;;;21.83;4.03;;;4.80;99.90;;;;;;5025366;28;20032;-82
2023/12/22 04:59:55;;;;;;;20.38;3.42;;;4.70;99.90;;;;;;5018400;28;20033;-82
2023/12/22 05:02:23;;;;;;;9.98;2.33;;;4.70;99.90;;;;;;5010043;28;20075;-82
2023/12/22 05:04:49;;;;;;;10.38;2.45;;;4.70;99.90;;;;;;4985661;28;20075;-81
2023/12/22 05:07:15;;;;;;;9.15;1.80;;;4.80;99.90;;;;;;5003071;28;20037;-81
2023/12/22 05:09:46;;;;;;;12.27;2.20;;;4.80;99.90;;;;;;5002989;28;20033;-82
2023/12/22 05:12:15;;;;;;;10.02;1.27;;;4.80;99.90;;;;;;4973057;28;20055;-82
2023/12/22 05:14:40;;;;;;;6.18;1.25;;;4.90;99.90;;;;;;4983929;28;20048;-83
2023/12/22 05:17:06;;;;;;;6.82;1.52;;;4.90;99.90;;;;;;4996858;28;20446;-82
2023/12/22 05:19:35;;;;;;;6.68;1.48;;;4.90;99.90;;;;;;5010773;28;20289;-81
2023/12/22 05:22:00;;;;;;;9.23;1.20;;;4.80;99.90;;;;;;5009946;28;20079;-81
2023/12/22 05:24:26;;;;;;;5.97;1.13;;;4.80;99.90;;;;;;5009175;28;20036;-81
2023/12/22 05:26:52;;;;;;;11.25;1.60;;;4.70;99.90;;;;;;4984847;28;20059;-81
2023/12/22 05:29:18;;;;;;;3.35;1.25;;;4.80;99.90;;;;;;5009622;28;20489;-81
2023/12/22 05:31:45;;;;;;;5.28;0.75;;;4.80;99.90;;;;;;5007498;28;20591;-81
2023/12/22 05:34:11;;;;;;;11.25;1.20;;;4.70;99.90;;;;;;5026084;28;20025;-82
2023/12/22 05:36:39;;;;;;;6.93;1.55;;;4.80;99.90;;;;;;5027867;28;20253;-80
2023/12/22 05:39:07;;;;;;;4.30;0.60;;;4.70;99.90;;;;;;5011063;28;20033;-82
2023/12/22 05:41:38;;;;;;;8.98;1.10;;;4.80;99.90;;;;;;5009175;28;20174;-81
2023/12/22 05:44:05;;;;;;;9.65;1.10;;;4.80;99.90;;;;;;5010303;28;20079;-81
2023/12/22 05:46:38;;;;;;;11.55;2.17;;;4.80;99.90;;;;;;5008810;28;20040;-81
2023/12/22 05:49:04;;;;;;;3.95;1.17;;;4.80;99.90;;;;;;4983531;28;20626;-81
2023/12/22 05:51:38;;;;;;;4.13;0.60;;;4.80;99.90;;;;;;4993272;28;20036;-81
2023/12/22 05:54:04;;;;;;;11.10;1.80;;;4.90;99.90;;;;;;5025540;28;20166;-81
2023/12/22 05:56:30;;;;;;;7.35;1.50;;;4.90;99.90;;;;;;5009218;28;20033;-83
2023/12/22 05:58:56;;;;;;;10.20;2.30;;;4.90;99.90;;;;;;4993869;28;20022;-81
2023/12/22 06:01:21;;;;;;;10.32;1.23;;;4.90;99.90;;;;;;4996526;28;20030;-81
2023/12/22 06:03:48;;;;;;;7.20;1.58;;;4.90;99.90;;;;;;5018028;28;20119;-81
2023/12/22 06:06:14;;;;;;;8.40;1.85;;;4.80;99.90;;;;;;4994022;28;20673;-82
2023/12/22 06:08:42;;;;;;;9.05;2.13;;;4.90;99.90;;;;;;5008680;28;20055;-81
2023/12/22 06:11:07;;;;;;;7.28;1.63;;;4.90;99.90;;;;;;4999067;28;20040;-81
2023/12/22 06:13:33;;;;;;;10.70;1.85;;;4.80;99.90;;;;;;5009059;28;20070;-82
2023/12/22 06:16:02;;;;;;;11.65;1.98;;;4.90;99.90;;;;;;4993287;28;20025;-81
2023/12/22 06:18:27;;;;;;;6.03;1.20;;;5.00;99.90;;;;;;5010161;28;20112;-81
2023/12/22 06:20:55;;;;;;;9.48;1.95;;;4.90;99.90;;;;;;5008390;28;20116;-82
2023/12/22 06:23:21;;;;;;;4.65;0.80;;;4.90;99.90;;;;;;4999446;28;20033;-81
2023/12/22 06:25:47;;;;;;;12.20;1.92;;;5.00;99.90;;;;;;5024371;28;20040;-81
2023/12/22 06:28:13;;;;;;;10.73;2.20;;;5.00;99.90;;;;;;4991804;28;20033;-81
2023/12/22 06:30:38;;;;;;;12.80;3.42;;;4.90;99.90;;;;;;5009209;28;20790;-81
2023/12/22 06:33:04;;;;;;;8.98;1.23;;;5.00;99.90;;;;;;5008026;28;20033;-81
2023/12/22 06:35:31;;;;;;;8.27;1.38;;;5.00;99.90;;;;;;5009189;28;20056;-82
2023/12/22 06:38:01;;;;;;;13.40;1.95;;;5.00;99.90;;;;;;5009001;28;20034;-81
2023/12/22 06:40:26;;;;;;;9.52;2.15;;;5.00;99.90;;;;;;5010730;28;20060;-81
2023/12/22 06:42:52;;;;;;;6.45;1.90;;;5.00;99.90;;;;;;5009301;28;20081;-81
2023/12/22 06:45:17;;;;;;;18.00;2.10;;;4.90;99.90;;;;;;5009251;28;20410;-81
2023/12/22 06:47:43;;;;;;;2.63;1.20;;;4.90;99.90;;;;;;4992334;28;20037;-81
2023/12/22 06:50:09;;;;;;;8.77;2.13;;;4.90;99.90;;;;;;5026108;28;20033;-81
2023/12/22 06:52:34;;;;;;;12.52;2.20;;;4.90;99.90;;;;;;5007988;28;20064;-81
2023/12/22 06:55:00;;;;;;;14.70;2.08;;;4.90;99.90;;;;;;5007463;28;20025;-81
2023/12/22 06:57:25;;;;;;;7.90;1.70;;;4.90;99.90;;;;;;5024967;28;20040;-81
2023/12/22 06:59:51;;;;;;;13.20;1.25;;;4.90;99.90;;;;;;4992478;28;20021;-81
2023/12/22 07:02:16;;;;;;;11.38;1.60;;;5.00;99.90;;;;;;5003202;28;20504;-81
2023/12/22 07:05:09;;;;;;;7.40;0.82;;;5.00;99.90;;;;;;5009205;28;20504;-81
2023/12/22 07:07:40;;;;;;;8.98;1.60;;;5.00;99.90;;;;;;4978899;28;20497;-82
2023/12/22 07:10:06;;;;;;;14.18;2.17;;;4.90;99.90;;;;;;5008933;28;20591;-82
2023/12/22 07:12:33;;;;;;;2.65;0.80;;;4.90;99.90;;;;;;5023346;28;20033;-81
2023/12/22 07:15:01;;;;;;;5.25;1.08;;;5.00;99.90;;;;;;5010288;28;20021;-82
2023/12/22 07:17:27;;;;;;;9.90;1.38;;;5.00;99.90;;;;;;5010135;28;20049;-82
2023/12/22 07:19:52;;;;;;;5.25;1.10;;;5.00;99.90;;;;;;5025472;28;20053;-81
2023/12/22 07:22:18;;;;;;;11.30;1.77;;;5.00;99.90;;;;;;5025072;28;20033;-82
2023/12/22 07:24:46;;;;;;;5.40;1.02;;;5.10;99.90;;;;;;5009912;28;20037;-81
2023/12/22 07:27:11;;;;;;;4.55;1.00;;;5.10;99.90;;;;;;5021992;28;20036;-83
2023/12/22 07:29:38;;;;;;;11.68;2.03;;;5.10;99.90;;;;;;5007439;28;20037;-81
2023/12/22 07:32:04;;;;;;;9.52;1.48;;;5.10;99.90;;;;;;5007593;28;20065;-82
2023/12/22 07:34:30;;;;;;;16.13;1.77;;;5.10;99.90;;;;;;5007543;28;20062;-83
2023/12/22 07:37:16;;;;;;;5.93;1.55;;;5.10;99.90;;;;;;5006382;28;20080;-83
2023/12/22 07:39:42;;;;;;;11.15;2.05;;;5.20;99.90;;;;;;5012021;28;20211;-82
2023/12/22 07:42:19;;;;;;;15.93;2.13;;;5.10;99.90;;;;;;5010518;28;20365;-81
2023/12/22 07:44:44;;;;;;;8.35;1.80;;;5.20;99.90;;;;;;4986429;28;20500;-81
2023/12/22 07:47:10;;;;;;;3.28;0.77;;;5.20;99.90;;;;;;4982919;28;20037;-82
2023/12/22 07:49:36;;;;;;;16.50;1.77;;;5.20;99.90;;;;;;4999521;28;20038;-81
2023/12/22 07:52:01;;;;;;;9.73;1.50;;;5.30;99.90;;;;;;5011017;28;20032;-81
2023/12/22 07:54:27;;;;;;;9.77;2.28;;;5.40;99.90;;;;;;5025414;28;20385;-84
2023/12/22 07:56:52;;;;;;;20.23;3.38;;;5.30;99.90;;;;;;5010886;28;20036;-84
2023/12/22 07:59:18;;;;;;;15.82;2.55;;;5.40;99.90;;;;;;5011870;28;20056;-83
2023/12/22 08:01:43;;;;;;;6.03;1.40;;;5.50;99.90;;;;;;5026402;28;20059;-84
2023/12/22 08:04:09;;;;;;;12.40;2.03;;;5.50;99.90;;;;;;4996671;28;20033;-83
2023/12/22 08:06:35;;;;;;;9.80;1.63;;;5.50;99.90;;;;;;5030829;28;20123;-84
2023/12/22 08:09:01;;;;;;;17.75;2.65;;;5.60;99.90;;;;;;4994594;28;20049;-85
2023/12/22 08:11:28;;;;;;;12.30;2.13;;;5.60;99.90;;;;;;5012718;28;20025;-84
2023/12/22 08:13:54;;;;;;;14.20;1.67;;;5.60;99.90;;;;;;5015979;28;20028;-84
2023/12/22 08:16:20;;;;;;;11.60;2.20;;;5.70;99.90;;;;;;5010890;28;20504;-87
2023/12/22 08:19:09;;;;;;;11.32;2.47;;;5.80;99.90;;;;;;5028306;28;20025;-86
2023/12/22 08:21:36;;;;;;;17.33;2.33;;;5.80;99.90;;;;;;5003095;28;20210;-85
2023/12/22 08:24:01;;;;;;;12.80;2.92;;;5.90;99.90;;;;;;5011409;28;20037;-87
2023/12/22 08:26:27;;;;;;;19.45;2.78;;;5.90;99.90;;;;;;5028803;28;20874;-87
2023/12/22 08:28:53;;;;;;;18.92;3.25;;;5.80;99.90;;;;;;4995032;28;20118;-86
2023/12/22 08:31:18;;;;;;;12.27;1.80;;;5.90;99.90;;;;;;4997803;28;20194;-88
2023/12/22 08:33:45;;;;;;;15.88;2.80;;;6.00;99.90;;;;;;4997217;28;20056;-86
2023/12/22 08:36:11;;;;;;;10.43;1.40;;;6.00;99.90;;;;;;4979010;28;20037;-87
2023/12/22 08:38:40;;;;;;;19.00;2.63;;;6.10;99.90;;;;;;5012502;28;20036;-87
2023/12/22 08:41:08;;;;;;;13.88;3.35;;;6.20;99.90;;;;;;5027750;28;20041;-88
2023/12/22 08:43:46;;;;;;;15.57;2.58;;;6.20;99.90;;;;;;4987951;28;20034;-87
2023/12/22 08:46:30;;;;;;;3.67;1.38;;;6.30;99.90;;;;;;4987650;28;20037;-88
2023/12/22 08:49:05;;;;;;;12.30;3.13;;;6.30;99.90;;;;;;4999530;28;20044;-88
2023/12/22 08:51:58;;;;;;;23.38;4.03;;;6.20;99.90;;;;;;4991937;28;20033;-89
2023/12/22 08:54:23;;;;;;;33.58;4.95;;;6.30;99.90;;;;;;5026544;28;20041;-88
2023/12/22 08:56:49;;;;;;;24.75;3.53;;;6.40;99.90;;;;;;5010710;28;20145;-89
2023/12/22 08:59:18;;;;;;;23.20;4.18;;;6.40;99.90;;;;;;5012834;28;20037;-89
2023/12/22 09:01:43;;;;;;;22.92;4.07;;;6.50;99.90;;;;;;5030405;28;20033;-86
2023/12/22 09:04:12;;;;;;;22.67;3.17;;;6.60;99.90;;;;;;5011294;28;20479;-87
2023/12/22 09:06:37;;;;;;;10.98;1.88;;;6.60;99.90;;;;;;4999190;28;20111;-84
2023/12/22 09:09:07;;;;;;;23.27;5.00;;;6.60;99.90;;;;;;5010338;28;20200;-84
2023/12/22 09:11:42;;;;;;;31.98;5.18;;;6.60;99.90;;;;;;5010627;28;20633;-84
2023/12/22 09:14:10;;;;;;;23.63;2.63;;;6.70;99.90;;;;;;5011911;28;20554;-85
2023/12/22 09:16:36;;;;;;;19.38;3.20;;;6.70;99.90;;;;;;5001154;28;20068;-84
2023/12/22 09:39:15;;;;;;;18.27;2.70;;;6.40;99.90;;;;;;4984622;28;20398;-85
2023/12/22 09:41:40;;;;;;;18.10;2.42;;;6.40;99.90;;;;;;4971802;28;20407;-85
2023/12/22 09:44:09;;;;;;;11.10;1.92;;;6.40;99.90;;;;;;4985673;28;20037;-85
2023/12/22 09:46:34;;;;;;;12.48;2.50;;;6.30;99.90;;;;;;5005032;28;20025;-85
2023/12/22 09:52:50;;;;;;;14.45;2.97;;;6.30;99.90;;;;;;4929982;28;20578;-85
2023/12/22 09:55:17;;;;;;;4.25;1.27;;;6.30;99.90;;;;;;4927003;28;20027;-85
2023/12/22 09:57:42;;;;;;;24.63;4.68;;;6.30;99.90;;;;;;5004270;28;20033;-85
2023/12/22 10:00:15;;;;;;;25.05;4.78;;;6.50;99.90;;;;;;4994274;28;20037;-85
2023/12/22 10:02:42;;;;;;;32.58;5.32;;;6.40;99.90;;;;;;5009286;28;20039;-87
2023/12/22 10:05:12;;;;;;;22.58;5.20;;;6.40;99.90;;;;;;4995074;28;20697;-85
2023/12/22 10:07:44;;;;;;;28.90;4.70;;;6.40;99.90;;;;;;4970627;28;20041;-85
2023/12/22 10:10:10;;;;;;;9.75;2.72;;;6.40;99.90;;;;;;5006400;28;20045;-86
2023/12/22 10:12:35;;;;;;;19.95;4.65;;;6.40;99.90;;;;;;5026065;28;20025;-87
2023/12/22 10:15:01;;;;;;;30.67;5.65;;;6.40;99.90;;;;;;5008276;28;20128;-86
2023/12/22 10:18:40;;;;;;;20.95;5.05;;;6.40;99.90;;;;;;4942379;28;20043;-87
2023/12/22 10:21:08;;;;;;;15.65;4.03;;;6.40;99.90;;;;;;4947493;28;20053;-85
2023/12/22 10:23:34;;;;;;;22.42;5.82;;;6.40;99.90;;;;;;5006147;28;20037;-85
2023/12/22 10:26:00;;;;;;;32.30;4.63;;;6.50;99.90;;;;;;5001251;28;20360;-85
2023/12/22 10:28:29;;;;;;;17.20;4.65;;;6.50;99.90;;;;;;5023969;28;20037;-84
2023/12/22 10:30:57;;;;;;;26.98;4.72;;;6.50;99.90;;;;;;5009395;28;20037;-84
2023/12/22 10:33:23;;;;;;;16.45;5.03;;;6.60;99.90;;;;;;5000302;28;20025;-84
2023/12/22 10:35:50;;;;;;;20.23;3.63;;;6.50;99.90;;;;;;5010601;28;20155;-85
2023/12/22 10:38:18;;;;;;;11.45;3.58;;;6.60;99.90;;;;;;4995200;28;20029;-85
2023/12/22 10:40:46;;;;;;;17.80;5.60;;;6.60;99.90;;;;;;5024592;28;20045;-86
2023/12/22 10:43:17;;;;;;;27.30;8.88;;;6.60;99.90;;;;;;4980924;28;20588;-85
2023/12/22 10:45:46;;;;;;;16.85;4.93;;;6.70;99.90;;;;;;5003884;28;20040;-85
2023/12/22 10:48:12;;;;;;;22.98;7.57;;;6.70;99.90;;;;;;5008448;28;20036;-85
2023/12/22 10:50:39;;;;;;;28.42;8.35;;;6.80;99.90;;;;;;4993246;28;20041;-85
2023/12/22 10:53:06;;;;;;;24.02;6.43;;;6.80;99.90;;;;;;4984863;28;20519;-83
2023/12/22 10:55:31;;;;;;;27.23;6.47;;;6.90;99.90;;;;;;4970179;28;20068;-85
2023/12/22 10:57:57;;;;;;;9.80;3.78;;;6.90;99.90;;;;;;5024519;28;20053;-84
2023/12/22 11:00:22;;;;;;;16.67;4.88;;;6.90;99.90;;;;;;4993178;28;20040;-84
2023/12/22 11:02:51;;;;;;;26.30;4.90;;;6.90;99.90;;;;;;5009626;28;20116;-85
2023/12/22 11:05:17;;;;;;;15.18;3.60;;;6.90;99.90;;;;;;5024758;28;20048;-85
2023/12/22 11:07:49;;;;;;;12.27;3.97;;;6.80;99.90;;;;;;5007762;28;20083;-84
2023/12/22 11:10:14;;;;;;;20.23;1.90;;;7.00;99.90;;;;;;5000931;28;20069;-84
2023/12/22 11:12:40;;;;;;;6.43;1.70;;;7.00;99.90;;;;;;4992402;28;20448;-85
2023/12/22 11:15:06;;;;;;;8.75;1.30;;;7.00;99.90;;;;;;5025155;28;20037;-84
2023/12/22 11:17:32;;;;;;;5.13;1.05;;;6.90;99.90;;;;;;5009005;28;20072;-85
2023/12/22 11:20:00;;;;;;;3.28;0.77;;;7.00;99.90;;;;;;5028351;28;20155;-84
2023/12/22 11:22:31;;;;;;;3.38;1.10;;;6.90;99.90;;;;;;5011267;28;20073;-85
2023/12/22 11:24:57;;;;;;;2.03;0.82;;;7.00;99.90;;;;;;5010924;28;20497;-84
2023/12/22 11:27:22;;;;;;;3.47;0.77;;;6.90;99.90;;;;;;5028597;28;20048;-84
2023/12/22 11:29:51;;;;;;;5.65;0.93;;;6.90;99.90;;;;;;4997036;28;20071;-84
2023/12/22 11:32:18;;;;;;;3.40;0.57;;;6.90;99.90;;;;;;5002501;28;20606;-84
2023/12/22 11:34:47;;;;;;;2.30;1.02;;;7.00;99.90;;;;;;4998056;28;20427;-84
2023/12/22 11:37:15;;;;;;;5.22;1.17;;;7.00;99.90;;;;;;4997889;28;20456;-84
2023/12/22 11:40:09;;;;;;;3.03;1.13;;;7.00;99.90;;;;;;4996530;28;20037;-84
2023/12/22 11:42:39;;;;;;;1.88;0.90;;;7.00;99.90;;;;;;4996457;28;20048;-84
2023/12/22 11:45:05;;;;;;;3.72;1.88;;;7.00;99.90;;;;;;5003779;28;20083;-85
2023/12/22 11:47:30;;;;;;;5.68;3.00;;;7.00;99.90;;;;;;5011141;28;20033;-86
2023/12/22 11:49:56;;;;;;;8.93;2.72;;;7.10;99.90;;;;;;5010661;28;20120;-84
2023/12/22 11:52:31;;;;;;;6.05;3.40;;;7.10;99.90;;;;;;4994917;28;20032;-85
2023/12/22 11:54:58;;;;;;;7.60;2.03;;;7.10;99.90;;;;;;5008953;28;20037;-85
2023/12/22 11:57:35;;;;;;;12.18;2.95;;;7.10;99.90;;;;;;4994683;28;20568;-84
2023/12/22 12:00:03;;;;;;;4.95;2.30;;;7.20;99.90;;;;;;5008171;28;20039;-85
2023/12/22 12:02:30;;;;;;;9.75;2.38;;;7.30;99.90;;;;;;5011111;28;20041;-84
2023/12/22 12:04:57;;;;;;;3.80;1.80;;;7.40;99.90;;;;;;4994782;28;20098;-85
2023/12/22 12:07:45;;;;;;;7.97;2.58;;;7.40;99.90;;;;;;5007935;28;20048;-85
2023/12/22 12:10:12;;;;;;;5.70;2.10;;;7.50;99.90;;;;;;5008938;28;20433;-85
2023/12/22 12:12:39;;;;;;;4.88;2.10;;;7.50;99.90;;;;;;4993524;28;20037;-85
2023/12/22 12:15:12;;;;;;;6.43;3.00;;;7.60;99.90;;;;;;5009054;28;20400;-85
2023/12/22 12:17:39;;;;;;;5.88;2.35;;;7.70;99.90;;;;;;5009505;28;20033;-85
2023/12/22 12:20:09;;;;;;;7.05;2.03;;;7.60;99.90;;;;;;5008359;28;20052;-85
2023/12/22 12:22:37;;;;;;;6.30;2.47;;;7.70;99.90;;;;;;4990292;28;20049;-85
2023/12/22 12:25:06;;;;;;;6.65;2.42;;;7.80;99.90;;;;;;5000434;28;20071;-85
2023/12/22 12:27:34;;;;;;;10.25;2.95;;;7.90;99.90;;;;;;5002263;28;20053;-85
2023/12/22 12:30:09;;;;;;;4.13;1.70;;;7.90;99.90;;;;;;4995372;28;20029;-85
2023/12/22 12:32:35;;;;;;;4.93;2.45;;;8.00;99.90;;;;;;5009256;28;20064;-85
2023/12/22 12:35:03;;;;;;;6.97;2.45;;;8.00;99.90;;;;;;5010236;28;20029;-85
2023/12/22 12:37:36;;;;;;;5.38;1.85;;;8.00;99.90;;;;;;5000607;28;20033;-85
2023/12/22 12:40:03;;;;;;;8.10;2.30;;;8.10;99.90;;;;;;5000033;28;20037;-85
2023/12/22 12:42:31;;;;;;;8.90;2.00;;;8.10;99.90;;;;;;4993972;28;20043;-85
2023/12/22 12:55:11;;;;;;;3.17;1.27;;;8.10;99.90;;;;;;4865378;29;20092;-85
2023/12/22 12:57:38;;;;;;;7.32;1.75;;;7.90;99.90;;;;;;4911606;28;20061;-85
2023/12/22 13:00:13;;;;;;;4.47;1.20;;;8.00;99.90;;;;;;4991143;28;20133;-85
2023/12/22 13:02:39;;;;;;;9.00;2.30;;;7.70;99.90;;;;;;5007830;28;20583;-85
2023/12/22 13:05:31;;;;;;;5.60;1.50;;;7.90;99.90;;;;;;4985926;28;20114;-84
2023/12/22 13:08:12;;;;;;;6.90;1.90;;;7.80;99.90;;;;;;4993806;28;20029;-84
2023/12/22 13:10:38;;;;;;;6.68;2.08;;;7.90;99.90;;;;;;5012618;28;20686;-85
2023/12/22 13:13:07;;;;;;;10.85;3.45;;;7.90;99.90;;;;;;5025323;28;20037;-86
2023/12/22 13:15:33;;;;;;;3.92;1.50;;;7.90;99.90;;;;;;5010613;28;20021;-85
2023/12/22 13:17:58;;;;;;;4.60;1.70;;;7.80;99.90;;;;;;5009890;28;20086;-83
2023/12/22 13:20:24;;;;;;;5.07;1.35;;;7.90;99.90;;;;;;5006048;28;20049;-82
2023/12/22 13:22:49;;;;;;;7.88;2.03;;;7.90;99.90;;;;;;5009644;28;20546;-80
2023/12/22 13:25:15;;;;;;;7.63;1.40;;;7.80;99.90;;;;;;5007600;28;20045;-82
2023/12/22 13:27:46;;;;;;;6.35;1.17;;;7.90;99.90;;;;;;5000090;28;20037;-82
2023/12/22 13:30:15;;;;;;;8.23;1.50;;;7.90;99.90;;;;;;4992473;28;20037;-82
2023/12/22 13:32:41;;;;;;;7.82;2.53;;;7.90;99.90;;;;;;4982803;28;20029;-82
2023/12/22 13:35:07;;;;;;;5.57;1.73;;;7.90;99.90;;;;;;4993102;28;20098;-82